Time;durP1;ratioP1;P1;durP2;ratioP2;P2;SDS_P1;SDS_P2;PMS_P1;PMS_P2;Temp;Humidity;BMP_temperature;BMP_pressure;BME280_temperature;BME280_humidity;BME280_pressure;Samples;Min_cycle;Max_cycle;Signal;HPM_P1;HPM_P2
2021/07/25 00:01:08;;;;;;;71.70;43.63;;;17.20;1.00;;;;;;5013900;28;20214;-64
2021/07/25 00:03:34;;;;;;;65.80;41.03;;;17.20;1.00;;;;;;5013133;28;20249;-64
2021/07/25 00:06:01;;;;;;;70.13;42.47;;;17.10;1.00;;;;;;5013638;28;20206;-64
2021/07/25 00:08:28;;;;;;;63.10;40.50;;;17.10;1.00;;;;;;5013164;28;20283;-64
2021/07/25 00:10:54;;;;;;;66.83;40.77;;;17.20;1.00;;;;;;5013216;28;20207;-64
2021/07/25 00:13:21;;;;;;;67.47;40.33;;;17.10;1.00;;;;;;5013509;28;20691;-64
2021/07/25 00:15:49;;;;;;;65.20;40.40;;;17.10;1.00;;;;;;5013562;28;20211;-64
2021/07/25 00:18:15;;;;;;;63.27;38.37;;;17.10;1.00;;;;;;5013328;28;20289;-63
2021/07/25 00:20:42;;;;;;;64.53;38.17;;;17.10;1.00;;;;;;5013364;28;20258;-64
2021/07/25 00:23:17;;;;;;;63.67;39.23;;;17.00;1.00;;;;;;5013216;28;20210;-64
2021/07/25 00:25:44;;;;;;;62.83;38.63;;;17.00;1.00;;;;;;5013330;28;20213;-64
2021/07/25 00:28:14;;;;;;;61.33;37.60;;;17.00;1.00;;;;;;5013105;28;20238;-64
2021/07/25 00:30:41;;;;;;;60.40;37.47;;;17.00;1.00;;;;;;5013313;28;20265;-64
2021/07/25 00:33:09;;;;;;;57.43;36.70;;;17.00;1.00;;;;;;5013214;28;20659;-64
2021/07/25 00:35:36;;;;;;;61.07;37.23;;;17.00;1.00;;;;;;5012833;28;20818;-64
2021/07/25 00:38:03;;;;;;;57.73;36.30;;;17.00;1.00;;;;;;5012820;28;20279;-64
2021/07/25 00:40:36;;;;;;;63.17;37.80;;;16.90;1.00;;;;;;5013042;28;20665;-64
2021/07/25 00:43:03;;;;;;;66.70;39.30;;;16.90;1.00;;;;;;5013083;28;20631;-64
2021/07/25 00:45:30;;;;;;;57.73;37.33;;;16.90;1.00;;;;;;5012736;28;20277;-64
2021/07/25 00:47:58;;;;;;;57.07;37.80;;;16.90;1.00;;;;;;5012660;28;20230;-64
2021/07/25 00:50:26;;;;;;;61.70;37.43;;;16.90;1.00;;;;;;5012618;28;20206;-64
2021/07/25 00:52:53;;;;;;;61.43;37.13;;;16.90;1.00;;;;;;5012951;28;20264;-63
2021/07/25 00:55:21;;;;;;;60.67;38.53;;;16.90;1.00;;;;;;5012712;28;20812;-64
2021/07/25 00:57:48;;;;;;;60.73;37.00;;;16.90;1.00;;;;;;5012696;28;20203;-64
2021/07/25 01:00:15;;;;;;;66.27;38.83;;;17.00;1.00;;;;;;5012605;28;20634;-63
2021/07/25 01:02:51;;;;;;;62.67;38.73;;;17.00;3.30;;;;;;5012637;28;20249;-64
2021/07/25 01:05:29;;;;;;;64.17;37.27;;;17.00;8.00;;;;;;5012333;28;20218;-64
2021/07/25 01:08:04;;;;;;;59.00;37.27;;;17.00;9.80;;;;;;5012597;28;20275;-64
2021/07/25 01:10:31;;;;;;;59.17;37.67;;;17.00;11.90;;;;;;5012622;28;20261;-64
2021/07/25 01:13:02;;;;;;;64.30;38.70;;;17.00;10.40;;;;;;5012532;28;20700;-64
2021/07/25 01:15:32;;;;;;;62.93;37.80;;;17.10;11.90;;;;;;5011479;28;20632;-64
2021/07/25 01:18:00;;;;;;;60.97;38.73;;;17.00;12.30;;;;;;5012153;28;20281;-63
2021/07/25 01:20:28;;;;;;;63.17;39.43;;;17.00;13.40;;;;;;5012362;28;20211;-64
2021/07/25 01:22:57;;;;;;;68.53;41.37;;;17.00;13.90;;;;;;5012196;28;20207;-64
2021/07/25 01:25:26;;;;;;;62.80;38.83;;;17.00;15.60;;;;;;5012092;28;20206;-64
2021/07/25 01:27:55;;;;;;;71.07;41.07;;;17.00;17.10;;;;;;5012010;28;20284;-64
2021/07/25 01:30:25;;;;;;;67.60;40.50;;;17.00;19.40;;;;;;5012351;28;20265;-64
2021/07/25 01:32:55;;;;;;;74.33;43.27;;;17.10;20.30;;;;;;5012281;28;20214;-64
2021/07/25 01:35:24;;;;;;;70.10;41.47;;;17.10;19.90;;;;;;5012260;28;20644;-64
2021/07/25 01:37:52;;;;;;;71.73;42.60;;;17.10;20.80;;;;;;5011982;28;20254;-64
2021/07/25 01:40:24;;;;;;;70.07;42.00;;;17.10;22.70;;;;;;5012187;28;20206;-64
2021/07/25 01:42:51;;;;;;;72.70;43.03;;;17.10;23.40;;;;;;5012268;28;20211;-64
2021/07/25 01:45:18;;;;;;;74.17;42.73;;;17.10;24.00;;;;;;5011962;28;20238;-64
2021/07/25 01:47:45;;;;;;;70.33;43.23;;;17.10;24.60;;;;;;5011997;28;20269;-64
2021/07/25 01:50:12;;;;;;;73.37;43.07;;;17.10;27.50;;;;;;5012176;28;20218;-64
2021/07/25 01:52:40;;;;;;;70.97;42.67;;;17.10;26.90;;;;;;5012217;28;20206;-64
2021/07/25 01:55:08;;;;;;;72.23;42.43;;;17.20;25.50;;;;;;5011726;28;20238;-63
2021/07/25 01:57:35;;;;;;;75.63;43.60;;;17.10;23.50;;;;;;5012079;28;20214;-64
2021/07/25 02:00:02;;;;;;;69.03;43.63;;;17.10;23.30;;;;;;5012086;28;20211;-64
2021/07/25 02:02:28;;;;;;;77.63;45.57;;;17.10;23.60;;;;;;5012046;28;20218;-64
2021/07/25 02:04:55;;;;;;;79.33;46.77;;;17.10;25.40;;;;;;5011722;28;20207;-66
2021/07/25 02:07:22;;;;;;;79.57;46.57;;;17.10;28.00;;;;;;5011832;28;20207;-63
2021/07/25 02:09:48;;;;;;;81.20;46.37;;;17.10;29.80;;;;;;5011584;28;20234;-64
2021/07/25 02:12:16;;;;;;;83.80;47.37;;;17.10;31.00;;;;;;5012067;28;20619;-64
2021/07/25 02:14:43;;;;;;;83.57;47.50;;;17.10;31.60;;;;;;5011705;28;20262;-63
2021/07/25 02:17:10;;;;;;;81.33;47.10;;;17.20;35.40;;;;;;5011935;28;20204;-63
2021/07/25 02:19:37;;;;;;;82.50;45.63;;;17.20;41.00;;;;;;5011849;28;20227;-64
2021/07/25 02:22:04;;;;;;;87.07;46.50;;;17.10;45.40;;;;;;5011667;28;20285;-63
2021/07/25 02:24:31;;;;;;;85.40;45.73;;;17.20;50.40;;;;;;5011844;28;20345;-64
2021/07/25 02:26:58;;;;;;;92.90;48.73;;;17.20;51.20;;;;;;5013561;28;20587;-64
2021/07/25 02:29:26;;;;;;;85.07;45.37;;;17.20;52.00;;;;;;5015501;28;20231;-64
2021/07/25 02:31:52;;;;;;;85.13;45.80;;;17.20;54.70;;;;;;5015282;28;20207;-64
2021/07/25 02:34:19;;;;;;;77.40;45.93;;;17.20;59.00;;;;;;5015158;28;20206;-63
2021/07/25 02:36:46;;;;;;;76.43;43.80;;;17.20;62.60;;;;;;5014980;28;20284;-64
2021/07/25 02:39:13;;;;;;;80.80;44.87;;;17.20;67.40;;;;;;5015358;28;20227;-63
2021/07/25 02:41:39;;;;;;;80.70;45.67;;;17.20;68.20;;;;;;5015588;28;20226;-64
2021/07/25 02:44:06;;;;;;;84.30;44.53;;;17.20;68.70;;;;;;5018055;28;20206;-63
2021/07/25 02:46:34;;;;;;;81.67;44.50;;;17.20;67.60;;;;;;5015816;28;20917;-64
2021/07/25 02:49:01;;;;;;;73.23;42.37;;;17.30;67.60;;;;;;5015619;28;20293;-63
2021/07/25 02:51:28;;;;;;;78.20;43.27;;;17.30;65.40;;;;;;5023677;28;20211;-64
2021/07/25 02:53:54;;;;;;;73.00;41.23;;;17.30;63.80;;;;;;5023271;28;20234;-64
2021/07/25 02:56:21;;;;;;;79.00;42.53;;;17.30;62.30;;;;;;5020054;28;20635;-64
2021/07/25 02:58:48;;;;;;;77.80;42.17;;;17.30;61.00;;;;;;5014773;28;20285;-64
2021/07/25 03:01:16;;;;;;;75.97;41.80;;;17.20;60.80;;;;;;5015471;28;20722;-64
2021/07/25 03:03:44;;;;;;;78.17;42.13;;;17.30;60.20;;;;;;5014995;28;20203;-64
2021/07/25 03:06:10;;;;;;;78.07;42.77;;;17.20;59.00;;;;;;5014884;28;20265;-64
2021/07/25 03:08:37;;;;;;;72.10;41.97;;;17.20;58.70;;;;;;5014568;28;20231;-64
2021/07/25 03:11:07;;;;;;;70.27;39.53;;;17.20;56.70;;;;;;5014724;28;20234;-64
2021/07/25 03:13:34;;;;;;;68.60;39.33;;;17.30;53.20;;;;;;5014332;28;20195;-64
2021/07/25 03:16:02;;;;;;;74.33;40.13;;;17.20;46.50;;;;;;5014560;28;20214;-64
2021/07/25 03:18:29;;;;;;;65.40;38.27;;;17.20;43.60;;;;;;5014222;28;20258;-64
2021/07/25 03:20:57;;;;;;;64.27;36.73;;;17.10;41.60;;;;;;5014700;28;20207;-64
2021/07/25 03:23:23;;;;;;;71.27;38.37;;;17.10;37.70;;;;;;5014445;28;20253;-64
2021/07/25 03:25:50;;;;;;;75.97;42.10;;;17.00;30.70;;;;;;5014117;28;20749;-64
2021/07/25 03:28:17;;;;;;;81.43;42.20;;;17.00;28.30;;;;;;5014187;28;20280;-64
2021/07/25 03:30:44;;;;;;;81.27;44.13;;;17.00;27.50;;;;;;5014146;28;20207;-63
2021/07/25 03:33:11;;;;;;;83.13;43.83;;;16.90;26.30;;;;;;5014345;28;20203;-64
2021/07/25 03:35:38;;;;;;;85.57;43.77;;;16.90;29.50;;;;;;5013700;28;20265;-64
2021/07/25 03:38:06;;;;;;;91.27;44.70;;;16.90;30.00;;;;;;5013420;28;20285;-64
2021/07/25 03:40:33;;;;;;;88.97;43.67;;;16.90;29.70;;;;;;5014058;28;20207;-64
2021/07/25 03:43:00;;;;;;;99.07;46.90;;;16.90;30.00;;;;;;5014148;28;20207;-64
2021/07/25 03:45:27;;;;;;;101.77;47.00;;;16.80;30.00;;;;;;5013714;28;20253;-64
2021/07/25 03:47:54;;;;;;;89.10;44.60;;;16.90;32.60;;;;;;5013904;28;20230;-64
2021/07/25 03:50:21;;;;;;;87.63;45.30;;;16.90;35.60;;;;;;5013848;28;20306;-64
2021/07/25 03:52:48;;;;;;;97.80;45.63;;;16.90;35.90;;;;;;5013966;28;20211;-64
2021/07/25 03:55:17;;;;;;;101.30;45.13;;;16.80;36.20;;;;;;5013750;28;20203;-64
2021/07/25 03:57:44;;;;;;;87.87;42.77;;;16.80;37.30;;;;;;5013748;28;20214;-64
2021/07/25 04:00:12;;;;;;;82.23;41.40;;;16.90;37.10;;;;;;5013727;28;20687;-64
2021/07/25 04:02:38;;;;;;;75.87;39.13;;;16.90;34.20;;;;;;5013802;28;20211;-64
2021/07/25 04:05:06;;;;;;;67.93;37.17;;;16.90;30.40;;;;;;5013539;28;20203;-64
2021/07/25 04:07:32;;;;;;;68.70;36.30;;;17.00;28.80;;;;;;5013565;28;20261;-64
2021/07/25 04:09:59;;;;;;;71.97;36.83;;;17.00;27.60;;;;;;5013596;28;20685;-64
2021/07/25 04:12:27;;;;;;;62.27;35.20;;;17.00;25.20;;;;;;5013362;28;20203;-63
2021/07/25 04:14:54;;;;;;;66.70;36.53;;;17.00;23.00;;;;;;5013517;28;20625;-64
2021/07/25 04:17:20;;;;;;;74.67;40.43;;;16.90;20.60;;;;;;5013428;28;20203;-63
2021/07/25 04:19:47;;;;;;;80.97;40.77;;;16.90;19.90;;;;;;5013277;28;20643;-64
2021/07/25 04:22:13;;;;;;;86.90;42.87;;;16.80;24.50;;;;;;5013268;28;20207;-64
2021/07/25 04:24:40;;;;;;;83.97;43.17;;;16.90;29.80;;;;;;5013213;28;20211;-64
2021/07/25 04:27:07;;;;;;;83.10;42.17;;;16.90;33.80;;;;;;5013078;28;20207;-64
2021/07/25 04:29:36;;;;;;;86.77;44.13;;;16.90;37.00;;;;;;5013151;28;20289;-63
2021/07/25 04:32:03;;;;;;;84.57;44.57;;;16.90;40.20;;;;;;5013355;28;20211;-64
2021/07/25 04:34:30;;;;;;;82.90;41.97;;;16.90;41.20;;;;;;5012989;28;20210;-64
2021/07/25 04:36:59;;;;;;;91.03;44.20;;;16.90;43.00;;;;;;5013038;28;20211;-64
2021/07/25 04:39:26;;;;;;;88.47;44.07;;;16.90;44.60;;;;;;5012929;28;20227;-64
2021/07/25 04:41:56;;;;;;;86.10;43.90;;;17.00;47.20;;;;;;5012872;28;20211;-64
2021/07/25 04:44:39;;;;;;;85.33;43.27;;;17.00;49.00;;;;;;5012877;28;20691;-64
2021/07/25 04:47:12;;;;;;;71.13;39.83;;;16.90;50.60;;;;;;5012886;28;20203;-64
2021/07/25 04:49:53;;;;;;;83.80;42.57;;;17.00;51.70;;;;;;5012487;28;20380;-64
2021/07/25 04:52:23;;;;;;;72.20;40.93;;;17.00;50.80;;;;;;5012894;28;20207;-64
2021/07/25 04:54:53;;;;;;;76.63;40.67;;;17.00;51.80;;;;;;5012729;28;20269;-64
2021/07/25 04:57:25;;;;;;;73.33;40.80;;;17.00;53.00;;;;;;5012686;28;20703;-64
2021/07/25 04:59:56;;;;;;;76.77;41.90;;;17.00;52.00;;;;;;5012708;28;20281;-64
2021/07/25 05:02:26;;;;;;;75.53;40.30;;;17.10;52.00;;;;;;5012571;28;20269;-64
2021/07/25 05:04:52;;;;;;;75.13;40.17;;;17.10;52.70;;;;;;5012541;28;20239;-64
2021/07/25 05:07:20;;;;;;;72.40;39.70;;;17.10;53.50;;;;;;5012757;28;20296;-64
2021/07/25 05:09:47;;;;;;;69.73;38.90;;;17.10;54.60;;;;;;5012916;28;20921;-64
2021/07/25 05:12:20;;;;;;;67.90;38.33;;;17.20;52.90;;;;;;5012515;28;20261;-64
2021/07/25 05:14:54;;;;;;;64.27;37.30;;;17.10;50.70;;;;;;5012404;28;20207;-63
2021/07/25 05:17:29;;;;;;;62.23;35.97;;;17.20;50.00;;;;;;5012302;28;20268;-63
2021/07/25 05:20:01;;;;;;;57.27;35.00;;;17.20;48.20;;;;;;5012524;28;20249;-63
2021/07/25 05:22:43;;;;;;;56.73;34.30;;;17.20;44.90;;;;;;5012540;28;20273;-64
2021/07/25 05:25:10;;;;;;;49.00;33.53;;;17.20;36.50;;;;;;5012248;28;20262;-64
2021/07/25 05:27:41;;;;;;;45.80;30.23;;;17.20;28.50;;;;;;5012016;28;20203;-64
2021/07/25 05:30:10;;;;;;;47.60;30.30;;;17.30;18.60;;;;;;5012388;28;20226;-64
2021/07/25 05:32:38;;;;;;;43.27;28.73;;;17.30;13.40;;;;;;5012133;28;20738;-64
2021/07/25 05:35:05;;;;;;;42.53;27.50;;;17.40;6.60;;;;;;5012161;28;20219;-64
2021/07/25 05:37:32;;;;;;;35.43;25.10;;;17.40;1.00;;;;;;5012166;28;20241;-64
2021/07/25 05:39:59;;;;;;;33.43;23.43;;;17.50;1.00;;;;;;5012097;28;20233;-64
2021/07/25 05:42:25;;;;;;;33.20;23.17;;;17.40;1.00;;;;;;5012375;28;20289;-63
2021/07/25 05:44:52;;;;;;;35.53;23.20;;;17.50;1.00;;;;;;5012189;28;20211;-63
2021/07/25 05:47:19;;;;;;;29.70;22.43;;;17.60;1.00;;;;;;5012242;28;20265;-64
2021/07/25 05:49:47;;;;;;;29.63;21.97;;;17.60;1.00;;;;;;5011892;28;20235;-64
2021/07/25 05:52:13;;;;;;;27.03;19.13;;;17.70;1.00;;;;;;5012112;28;20211;-64
2021/07/25 05:54:41;;;;;;;23.03;17.43;;;17.80;1.00;;;;;;5011763;28;20265;-64
2021/07/25 05:57:08;;;;;;;28.50;18.20;;;17.90;99.90;;;;;;5012195;28;20211;-64
2021/07/25 05:59:35;;;;;;;22.10;16.17;;;17.90;99.90;;;;;;5011878;28;20711;-64
2021/07/25 06:02:02;;;;;;;19.87;16.43;;;18.00;99.90;;;;;;5014068;28;20403;-64
2021/07/25 06:04:29;;;;;;;19.20;14.80;;;18.00;1.00;;;;;;5015755;28;20277;-64
2021/07/25 06:06:57;;;;;;;18.70;13.70;;;18.00;99.90;;;;;;5015919;28;20206;-64
2021/07/25 06:09:24;;;;;;;18.60;13.50;;;18.10;99.90;;;;;;5015485;28;20234;-64
2021/07/25 06:11:51;;;;;;;17.67;12.97;;;18.10;99.90;;;;;;5016023;28;20353;-64
2021/07/25 06:14:18;;;;;;;16.27;12.60;;;18.10;1.00;;;;;;5015865;28;20257;-64
2021/07/25 06:16:45;;;;;;;16.60;11.67;;;18.10;1.00;;;;;;5015771;28;20293;-64
2021/07/25 06:19:11;;;;;;;17.60;11.77;;;18.10;99.90;;;;;;5015620;28;20222;-64
2021/07/25 06:21:38;;;;;;;14.63;11.73;;;18.20;86.50;;;;;;5015605;28;20202;-64
2021/07/25 06:24:06;;;;;;;15.07;10.47;;;18.20;99.90;;;;;;5015689;28;20238;-64
2021/07/25 06:26:33;;;;;;;11.33;8.90;;;18.30;99.90;;;;;;5015554;28;20230;-64
2021/07/25 06:28:59;;;;;;;11.63;9.40;;;18.30;99.90;;;;;;5015499;28;20230;-63
2021/07/25 06:31:26;;;;;;;12.97;8.53;;;18.30;99.90;;;;;;5015428;28;20627;-64
2021/07/25 06:33:53;;;;;;;10.53;8.50;;;18.40;99.90;;;;;;5015640;28;20215;-64
2021/07/25 06:36:20;;;;;;;9.83;7.70;;;18.50;1.00;;;;;;5015325;28;20253;-63
2021/07/25 06:38:46;;;;;;;10.57;7.77;;;18.50;99.90;;;;;;5015663;28;20265;-63
2021/07/25 06:41:15;;;;;;;11.93;7.43;;;18.60;5.20;;;;;;5015675;28;20203;-63
2021/07/25 06:43:41;;;;;;;7.83;6.70;;;18.60;99.90;;;;;;5014214;28;20211;-64
2021/07/25 06:46:09;;;;;;;9.43;7.00;;;18.70;1.00;;;;;;5016911;28;20215;-64
2021/07/25 06:48:36;;;;;;;8.80;6.30;;;18.70;1.00;;;;;;5016869;28;20239;-64
2021/07/25 06:51:03;;;;;;;10.47;6.57;;;18.70;1.00;;;;;;5015152;28;20241;-64
2021/07/25 06:53:32;;;;;;;8.30;6.07;;;18.80;1.00;;;;;;5022117;28;20203;-63
2021/07/25 06:56:03;;;;;;;8.40;6.17;;;18.90;1.00;;;;;;5026859;28;20226;-63
2021/07/25 06:58:31;;;;;;;7.53;5.50;;;18.90;99.90;;;;;;5025475;28;20234;-64
2021/07/25 07:00:58;;;;;;;8.30;5.50;;;19.00;99.90;;;;;;5015091;28;20202;-64
2021/07/25 07:03:24;;;;;;;7.63;5.40;;;19.10;99.90;;;;;;5014525;28;20211;-64
2021/07/25 07:05:51;;;;;;;9.27;5.43;;;19.20;99.90;;;;;;5014864;28;20211;-63
2021/07/25 07:08:19;;;;;;;7.30;5.47;;;19.20;39.90;;;;;;5014738;28;20351;-64
2021/07/25 07:10:48;;;;;;;7.50;5.87;;;19.30;73.50;;;;;;5014752;28;20280;-64
2021/07/25 07:13:16;;;;;;;8.40;5.30;;;19.30;99.90;;;;;;5013594;28;20211;-64
2021/07/25 07:15:45;;;;;;;6.77;5.00;;;19.40;1.00;;;;;;5014180;28;20207;-64
2021/07/25 07:18:12;;;;;;;7.87;5.07;;;19.50;1.00;;;;;;5014649;28;20227;-64
2021/07/25 07:20:39;;;;;;;6.90;4.90;;;19.60;99.90;;;;;;5014656;28;20203;-64
2021/07/25 07:23:08;;;;;;;8.40;5.17;;;19.70;1.00;;;;;;5014359;28;20206;-64
2021/07/25 07:25:37;;;;;;;9.20;4.83;;;19.70;1.00;;;;;;5014214;28;20207;-64
2021/07/25 07:28:05;;;;;;;9.40;5.43;;;19.90;99.90;;;;;;5014598;28;20297;-64
2021/07/25 07:30:32;;;;;;;9.47;5.07;;;20.00;34.60;;;;;;5013958;28;20222;-64
2021/07/25 07:33:07;;;;;;;6.97;4.53;;;20.10;1.00;;;;;;5014203;28;20667;-64
2021/07/25 07:35:34;;;;;;;7.13;4.63;;;20.20;1.00;;;;;;5013873;28;20248;-63
2021/07/25 07:38:01;;;;;;;7.50;4.57;;;20.10;1.00;;;;;;5014141;28;20230;-64
2021/07/25 07:40:27;;;;;;;8.10;4.83;;;20.10;99.90;;;;;;5013948;28;20203;-63
2021/07/25 07:42:54;;;;;;;10.10;5.00;;;20.00;99.90;;;;;;5013869;28;20622;-64
2021/07/25 07:45:21;;;;;;;8.03;4.47;;;20.00;99.90;;;;;;5014041;28;20215;-64
2021/07/25 07:47:48;;;;;;;7.77;4.60;;;20.00;1.00;;;;;;5013890;28;20261;-64
2021/07/25 07:50:16;;;;;;;6.87;4.80;;;20.00;1.00;;;;;;5013866;28;20226;-64
2021/07/25 07:52:43;;;;;;;9.00;5.03;;;20.10;1.00;;;;;;5013930;28;20284;-64
2021/07/25 07:55:11;;;;;;;8.17;4.67;;;20.20;1.00;;;;;;5013961;28;20269;-64
2021/07/25 07:57:37;;;;;;;8.13;4.50;;;20.30;1.00;;;;;;5023152;28;20272;-62
2021/07/25 08:00:05;;;;;;;8.60;4.70;;;20.30;1.00;;;;;;5033390;28;20202;-63
2021/07/25 08:02:32;;;;;;;7.27;5.97;;;20.40;1.00;;;;;;5033084;28;20739;-63
2021/07/25 08:04:59;;;;;;;7.43;4.90;;;20.70;99.90;;;;;;5033005;28;20206;-63
2021/07/25 08:07:27;;;;;;;11.77;8.10;;;20.80;99.90;;;;;;5032870;28;20206;-63
2021/07/25 08:09:53;;;;;;;7.37;5.00;;;20.80;99.90;;;;;;5032916;28;20296;-63
2021/07/25 08:12:20;;;;;;;7.70;4.60;;;20.90;99.90;;;;;;5032748;28;20233;-61
2021/07/25 08:14:47;;;;;;;7.37;4.57;;;21.00;99.90;;;;;;5032934;28;20206;-63
2021/07/25 08:17:14;;;;;;;8.60;4.63;;;21.10;99.90;;;;;;5032634;28;20206;-63
2021/07/25 08:19:40;;;;;;;6.33;5.30;;;21.40;99.90;;;;;;5032706;28;20257;-63
2021/07/25 08:22:08;;;;;;;7.63;4.43;;;21.60;99.90;;;;;;5032645;28;20202;-64
2021/07/25 08:24:36;;;;;;;6.27;4.17;;;21.70;99.90;;;;;;5031983;28;20234;-63
2021/07/25 08:27:03;;;;;;;8.13;4.63;;;21.80;53.00;;;;;;5032308;28;20685;-63
2021/07/25 08:29:30;;;;;;;6.37;4.53;;;22.00;32.20;;;;;;5032360;28;20227;-63
2021/07/25 08:31:57;;;;;;;6.93;4.83;;;22.10;11.50;;;;;;5032660;28;20625;-61
2021/07/25 08:34:25;;;;;;;7.17;4.30;;;22.40;1.00;;;;;;5032299;28;20619;-61
2021/07/25 08:36:51;;;;;;;6.70;4.70;;;22.50;2.60;;;;;;5032286;28;20210;-57
2021/07/25 08:39:19;;;;;;;6.83;4.50;;;22.70;1.00;;;;;;5031997;28;20230;-61
2021/07/25 08:42:06;;;;;;;7.87;4.03;;;22.80;1.00;;;;;;5032586;28;20333;-61
2021/07/25 08:44:42;;;;;;;8.97;3.93;;;22.90;1.00;;;;;;5032341;28;20454;-61
2021/07/25 08:47:18;;;;;;;5.77;4.50;;;23.00;1.00;;;;;;5031753;28;20210;-61
2021/07/25 08:49:51;;;;;;;6.10;4.23;;;23.10;1.00;;;;;;5031791;28;20234;-60
2021/07/25 08:52:19;;;;;;;7.97;4.50;;;23.10;1.00;;;;;;5032337;28;20207;-58
2021/07/25 08:54:46;;;;;;;8.17;4.30;;;23.00;1.00;;;;;;5032378;28;20260;-62
2021/07/25 08:57:17;;;;;;;6.07;4.63;;;23.10;1.00;;;;;;5032373;28;20252;-62
2021/07/25 08:59:45;;;;;;;8.43;4.23;;;23.20;1.00;;;;;;5032484;28;20265;-61
2021/07/25 09:02:19;;;;;;;6.80;3.97;;;23.20;1.00;;;;;;5032138;28;20268;-61
2021/07/25 09:04:47;;;;;;;6.70;3.80;;;23.30;1.00;;;;;;5032317;28;20210;-61
2021/07/25 09:07:15;;;;;;;6.00;3.83;;;23.40;1.00;;;;;;5032353;28;20304;-61
2021/07/25 09:09:43;;;;;;;4.63;3.50;;;23.40;1.00;;;;;;5032274;28;20222;-62
2021/07/25 09:12:11;;;;;;;5.70;3.33;;;23.50;1.00;;;;;;5031947;28;20217;-61
2021/07/25 09:14:43;;;;;;;6.37;4.20;;;23.50;1.00;;;;;;5031825;28;20216;-62
2021/07/25 09:17:10;;;;;;;4.03;3.37;;;23.50;1.00;;;;;;5030299;28;20216;-62
2021/07/25 09:20:24;;;;;;;9.30;4.90;;;23.60;1.00;;;;;;5031246;28;20635;-62
2021/07/25 09:23:05;;;;;;;6.87;3.63;;;23.60;1.00;;;;;;5031931;28;20262;-61
2021/07/25 09:25:38;;;;;;;5.40;3.73;;;23.60;1.00;;;;;;5031137;28;20206;-62
2021/07/25 09:28:25;;;;;;;8.03;3.80;;;23.50;1.00;;;;;;5032185;28;20230;-58
2021/07/25 09:30:54;;;;;;;3.97;3.30;;;23.50;99.90;;;;;;5032049;28;20640;-61
2021/07/25 09:33:30;;;;;;;6.10;3.53;;;23.50;99.90;;;;;;5031708;28;20210;-59
2021/07/25 09:36:09;;;;;;;5.67;3.67;;;23.60;99.90;;;;;;5031277;28;20232;-58
2021/07/25 09:38:36;;;;;;;4.27;3.40;;;23.60;99.90;;;;;;5031933;28;20229;-62
2021/07/25 09:41:22;;;;;;;4.97;3.27;;;23.70;99.90;;;;;;5032116;28;20681;-58
2021/07/25 09:44:03;;;;;;;5.10;3.50;;;23.80;99.90;;;;;;5031318;28;20248;-60
2021/07/25 09:46:50;;;;;;;5.60;3.13;;;23.80;99.90;;;;;;5032082;28;20205;-62
2021/07/25 09:49:18;;;;;;;5.30;3.13;;;23.90;99.90;;;;;;5031667;28;20238;-60
2021/07/25 09:51:46;;;;;;;10.73;3.00;;;24.00;99.90;;;;;;5031840;28;20264;-60
2021/07/25 09:54:13;;;;;;;6.40;3.00;;;24.00;99.90;;;;;;5031322;28;20256;-62
2021/07/25 09:56:40;;;;;;;5.50;2.83;;;24.00;99.90;;;;;;5031997;28;20264;-60
2021/07/25 09:59:25;;;;;;;4.07;2.90;;;24.00;99.90;;;;;;5031882;28;20230;-61
2021/07/25 10:01:53;;;;;;;5.87;3.07;;;24.00;99.90;;;;;;5032001;28;20268;-62
2021/07/25 10:04:23;;;;;;;5.07;2.80;;;24.00;99.90;;;;;;5031472;28;20272;-61
2021/07/25 10:06:51;;;;;;;5.57;2.57;;;24.00;99.90;;;;;;5031560;28;20264;-59
2021/07/25 10:09:19;;;;;;;5.27;3.23;;;24.00;99.90;;;;;;5031904;28;20226;-62
2021/07/25 10:11:49;;;;;;;3.40;2.80;;;24.10;99.90;;;;;;5031524;28;20269;-61
2021/07/25 10:14:18;;;;;;;5.43;3.47;;;24.30;99.90;;;;;;5031399;28;20630;-60
2021/07/25 10:16:45;;;;;;;5.97;2.77;;;24.40;99.90;;;;;;5031155;28;20829;-62
2021/07/25 10:19:15;;;;;;;4.97;2.80;;;24.50;99.90;;;;;;5026638;28;20237;-67
2021/07/25 10:21:43;;;;;;;4.60;2.87;;;24.70;99.90;;;;;;5030807;28;20278;-65
2021/07/25 10:24:13;;;;;;;4.13;2.90;;;24.90;99.90;;;;;;5030950;28;20223;-65
2021/07/25 10:26:41;;;;;;;5.30;2.67;;;25.10;99.90;;;;;;5031143;28;20206;-65
2021/07/25 10:29:09;;;;;;;5.07;3.00;;;25.10;99.90;;;;;;5030762;28;20707;-64
2021/07/25 10:31:40;;;;;;;5.20;2.73;;;25.00;99.90;;;;;;5031093;28;20223;-64
2021/07/25 10:34:07;;;;;;;5.57;2.80;;;25.10;99.90;;;;;;5030866;28;20747;-66
2021/07/25 10:36:36;;;;;;;4.93;3.13;;;25.10;99.90;;;;;;5031199;28;20233;-65
2021/07/25 10:39:02;;;;;;;6.47;2.97;;;25.20;99.90;;;;;;5030591;28;20226;-66
2021/07/25 10:41:30;;;;;;;4.13;2.73;;;25.30;99.90;;;;;;5031470;28;20260;-66
2021/07/25 10:44:01;;;;;;;4.67;2.90;;;25.50;99.90;;;;;;5030814;28;20207;-66
2021/07/25 10:46:29;;;;;;;4.27;3.23;;;25.50;99.90;;;;;;5030839;28;20242;-66
2021/07/25 10:49:15;;;;;;;5.47;3.00;;;25.60;99.90;;;;;;5034319;28;20686;-65
2021/07/25 10:52:04;;;;;;;4.07;3.10;;;25.70;99.90;;;;;;5034851;28;20230;-66
2021/07/25 10:54:32;;;;;;;4.63;2.83;;;25.80;99.90;;;;;;5035106;28;20210;-65
2021/07/25 10:56:59;;;;;;;4.10;2.80;;;26.00;99.90;;;;;;5034534;28;20710;-70
2021/07/25 10:59:43;;;;;;;4.50;2.80;;;26.00;99.90;;;;;;5034558;28;20230;-67
2021/07/25 11:02:17;;;;;;;4.97;2.90;;;26.00;99.90;;;;;;5034965;28;20208;-66
2021/07/25 11:05:06;;;;;;;3.90;2.50;;;26.00;99.90;;;;;;5034632;28;20210;-66
2021/07/25 11:07:38;;;;;;;5.63;2.73;;;26.00;99.90;;;;;;5034868;28;20268;-65
2021/07/25 11:10:07;;;;;;;4.80;2.90;;;26.30;99.90;;;;;;5033965;28;20214;-65
2021/07/25 11:13:19;;;;;;;4.97;3.00;;;26.50;99.90;;;;;;5034182;28;20230;-65
2021/07/25 11:15:47;;;;;;;4.27;2.70;;;26.40;99.90;;;;;;5006214;28;20252;-66
2021/07/25 11:18:29;;;;;;;3.47;2.70;;;26.00;99.90;;;;;;5033318;28;20272;-65
2021/07/25 11:20:58;;;;;;;4.83;2.67;;;25.70;99.90;;;;;;5033404;28;20202;-66
2021/07/25 11:23:37;;;;;;;4.07;2.67;;;25.80;99.90;;;;;;5033629;28;20296;-66
2021/07/25 11:26:34;;;;;;;4.30;2.43;;;25.80;99.90;;;;;;5033686;28;20213;-66
2021/07/25 11:29:02;;;;;;;5.23;2.67;;;25.70;99.90;;;;;;5033253;28;20230;-66
2021/07/25 11:31:38;;;;;;;6.33;2.73;;;25.70;99.90;;;;;;5033640;28;20226;-67
2021/07/25 11:34:07;;;;;;;4.03;2.77;;;25.80;99.90;;;;;;5033325;28;20620;-66
2021/07/25 11:36:34;;;;;;;6.70;2.67;;;25.70;99.90;;;;;;5034179;28;20210;-65
2021/07/25 11:39:04;;;;;;;3.07;2.50;;;25.70;99.90;;;;;;5033069;28;20226;-65
2021/07/25 11:41:31;;;;;;;2.83;2.40;;;25.90;99.90;;;;;;5033565;28;20206;-65
2021/07/25 11:44:00;;;;;;;3.03;2.37;;;26.20;99.90;;;;;;5033355;28;20214;-65
2021/07/25 11:46:33;;;;;;;3.43;2.30;;;26.50;99.90;;;;;;5033480;28;20218;-66
2021/07/25 11:49:05;;;;;;;4.00;2.50;;;26.60;99.90;;;;;;5032756;28;20245;-65
2021/07/25 11:51:32;;;;;;;4.60;2.40;;;26.60;99.90;;;;;;5033303;28;20280;-65
2021/07/25 11:53:59;;;;;;;4.93;2.30;;;26.70;99.90;;;;;;5033250;28;20210;-65
2021/07/25 11:56:28;;;;;;;4.20;2.57;;;26.60;99.90;;;;;;5033095;28;20283;-65
2021/07/25 11:59:02;;;;;;;2.90;1.90;;;26.60;99.90;;;;;;5032165;28;20602;-65
2021/07/25 12:01:29;;;;;;;3.07;2.20;;;26.60;99.90;;;;;;5033010;28;20201;-65
2021/07/25 12:03:56;;;;;;;4.10;2.33;;;26.70;99.90;;;;;;5033134;28;20210;-65
2021/07/25 12:06:22;;;;;;;4.00;2.50;;;26.70;99.90;;;;;;5032696;28;20675;-65
2021/07/25 12:09:09;;;;;;;5.47;3.00;;;26.70;99.90;;;;;;5032659;28;20780;-65
2021/07/25 12:11:39;;;;;;;4.87;2.30;;;26.80;99.90;;;;;;5032481;28;20230;-65
2021/07/25 12:14:06;;;;;;;4.77;2.60;;;26.70;99.90;;;;;;5032739;28;20236;-65
2021/07/25 12:16:50;;;;;;;3.67;2.70;;;26.80;99.90;;;;;;5033062;28;20236;-65
2021/07/25 12:19:18;;;;;;;4.17;2.47;;;26.90;99.90;;;;;;5032381;28;20640;-65
2021/07/25 12:21:46;;;;;;;3.07;2.30;;;26.90;99.90;;;;;;5032872;28;20396;-65
2021/07/25 12:24:26;;;;;;;3.13;2.17;;;26.90;99.90;;;;;;5032311;28;20297;-65
2021/07/25 12:26:54;;;;;;;4.30;2.80;;;27.10;99.90;;;;;;5032863;28;20210;-65
2021/07/25 12:29:37;;;;;;;4.77;2.60;;;27.30;99.90;;;;;;5032085;28;20276;-65
2021/07/25 12:32:25;;;;;;;4.67;2.30;;;27.50;99.90;;;;;;5033160;28;20226;-65
2021/07/25 12:34:53;;;;;;;3.47;2.40;;;27.70;99.90;;;;;;5032259;28;20341;-65
2021/07/25 12:37:27;;;;;;;3.00;2.10;;;27.50;99.90;;;;;;5032576;28;20256;-65
2021/07/25 12:40:15;;;;;;;3.47;2.47;;;27.60;99.90;;;;;;5032120;28;20283;-65
2021/07/25 12:42:46;;;;;;;5.03;2.37;;;27.60;99.90;;;;;;5027859;28;20252;-64
2021/07/25 12:45:30;;;;;;;4.53;2.40;;;27.20;99.90;;;;;;5031980;28;20221;-64
2021/07/25 12:48:23;;;;;;;5.97;2.70;;;26.90;99.90;;;;;;5031936;28;20644;-64
2021/07/25 12:50:54;;;;;;;4.63;2.37;;;26.70;99.90;;;;;;5032291;28;20210;-64